CYNL

METAR CYNL 221500Z AUTO 02006KT 9SM SCT012 BKN013 BKN045 03/01 A3014 RMK AO1 PRESRR SLP229
METAR
LOCATION
CYNL
DATE - TIME
221500Z
WIND
020 TRUE @ 6 KNOTS
VISIBILITY
9SM
RUNWAY VISUAL RANGE
NOT REPORTED
WEATHER
CLOUDINESS
SCT012 BKN013 BKN045
TEMP / DEWPOINT
3 ºC / 1 ºC
ALTIMETER
30.14 in. Hg
RECENT WEATHER
NOT REPORTED
WIND SHEAR
NOT REPORTED
REMARKS
RMK AO1 PRESRR SLP229
SEA LEVEL PRESSURE: hPa

CYNL

SPECI CYNL 221459Z AUTO 02006KT 9SM BKN012 BKN045 03/01 A3014 RMK AO1 PRESRR SLP229
SPECI
LOCATION
CYNL
DATE - TIME
221459Z
WIND
020 TRUE @ 6 KNOTS
VISIBILITY
9SM
RUNWAY VISUAL RANGE
NOT REPORTED
WEATHER
CLOUDINESS
BKN012 BKN045
TEMP / DEWPOINT
3 ºC / 1 ºC
ALTIMETER
30.14 in. Hg
RECENT WEATHER
NOT REPORTED
WIND SHEAR
NOT REPORTED
REMARKS
RMK AO1 PRESRR SLP229
SEA LEVEL PRESSURE: hPa

CYNL

SPECI CYNL 221455Z AUTO 03007KT 9SM SCT013 BKN018 BKN045 03/01 A3014 RMK AO1 PRESRR SLP229
SPECI
LOCATION
CYNL
DATE - TIME
221455Z
WIND
030 TRUE @ 7 KNOTS
VISIBILITY
9SM
RUNWAY VISUAL RANGE
NOT REPORTED
WEATHER
CLOUDINESS
SCT013 BKN018 BKN045
TEMP / DEWPOINT
3 ºC / 1 ºC
ALTIMETER
30.14 in. Hg
RECENT WEATHER
NOT REPORTED
WIND SHEAR
NOT REPORTED
REMARKS
RMK AO1 PRESRR SLP229
SEA LEVEL PRESSURE: hPa

Your time UTC time
 
 
Weather data provided by AXYS Technologies Inc., www.axystechnologies.com
 
Station History